sensor_id;sensor_type;location;lat;lon;timestamp;temperature;humidity
77693;SHT31;66984;47.404;18.836;2023-09-08T00:00:15;19.42;62.81
77693;SHT31;66984;47.404;18.836;2023-09-08T00:01:17;19.42;62.92
77693;SHT31;66984;47.404;18.836;2023-09-08T00:02:20;19.39;63.03
77693;SHT31;66984;47.404;18.836;2023-09-08T00:03:23;19.38;63.14
77693;SHT31;66984;47.404;18.836;2023-09-08T00:04:27;19.33;63.25
77693;SHT31;66984;47.404;18.836;2023-09-08T00:05:30;19.33;63.26
77693;SHT31;66984;47.404;18.836;2023-09-08T00:06:33;19.33;63.28
77693;SHT31;66984;47.404;18.836;2023-09-08T00:07:36;19.32;63.36
77693;SHT31;66984;47.404;18.836;2023-09-08T00:08:39;19.33;63.44
77693;SHT31;66984;47.404;18.836;2023-09-08T00:09:42;19.32;63.48
77693;SHT31;66984;47.404;18.836;2023-09-08T00:10:44;19.31;63.62
77693;SHT31;66984;47.404;18.836;2023-09-08T00:11:48;19.28;63.59
77693;SHT31;66984;47.404;18.836;2023-09-08T00:12:51;19.29;63.59
77693;SHT31;66984;47.404;18.836;2023-09-08T00:13:54;19.28;63.61
77693;SHT31;66984;47.404;18.836;2023-09-08T00:14:57;19.26;63.58
77693;SHT31;66984;47.404;18.836;2023-09-08T00:16:00;19.26;63.60
77693;SHT31;66984;47.404;18.836;2023-09-08T00:17:03;19.23;63.72
77693;SHT31;66984;47.404;18.836;2023-09-08T00:18:07;19.25;63.75
77693;SHT31;66984;47.404;18.836;2023-09-08T00:19:10;19.25;63.75
77693;SHT31;66984;47.404;18.836;2023-09-08T00:20:13;19.23;63.78
77693;SHT31;66984;47.404;18.836;2023-09-08T00:21:16;19.21;63.76
77693;SHT31;66984;47.404;18.836;2023-09-08T00:22:19;19.23;63.78
77693;SHT31;66984;47.404;18.836;2023-09-08T00:23:22;19.22;63.77
77693;SHT31;66984;47.404;18.836;2023-09-08T00:24:25;19.21;63.72
77693;SHT31;66984;47.404;18.836;2023-09-08T00:25:28;19.21;63.76
77693;SHT31;66984;47.404;18.836;2023-09-08T00:26:31;19.18;63.94
77693;SHT31;66984;47.404;18.836;2023-09-08T00:27:34;19.15;63.92
77693;SHT31;66984;47.404;18.836;2023-09-08T00:28:37;19.15;63.83
77693;SHT31;66984;47.404;18.836;2023-09-08T00:29:40;19.16;63.77
77693;SHT31;66984;47.404;18.836;2023-09-08T00:30:43;19.15;63.80
77693;SHT31;66984;47.404;18.836;2023-09-08T00:31:46;19.15;63.75
77693;SHT31;66984;47.404;18.836;2023-09-08T00:32:49;19.14;63.79
77693;SHT31;66984;47.404;18.836;2023-09-08T00:33:52;19.12;63.90
77693;SHT31;66984;47.404;18.836;2023-09-08T00:34:56;19.11;63.89
77693;SHT31;66984;47.404;18.836;2023-09-08T00:35:59;19.11;63.98
77693;SHT31;66984;47.404;18.836;2023-09-08T00:37:02;19.11;63.92
77693;SHT31;66984;47.404;18.836;2023-09-08T00:38:09;19.11;63.86
77693;SHT31;66984;47.404;18.836;2023-09-08T00:39:12;19.11;63.72
77693;SHT31;66984;47.404;18.836;2023-09-08T00:40:15;19.10;63.82
77693;SHT31;66984;47.404;18.836;2023-09-08T00:41:18;19.08;63.91
77693;SHT31;66984;47.404;18.836;2023-09-08T00:42:21;19.02;63.90
77693;SHT31;66984;47.404;18.836;2023-09-08T00:43:24;19.05;63.97
77693;SHT31;66984;47.404;18.836;2023-09-08T00:44:27;19.02;63.91
77693;SHT31;66984;47.404;18.836;2023-09-08T00:45:30;19.00;63.89
77693;SHT31;66984;47.404;18.836;2023-09-08T00:46:34;18.98;64.06
77693;SHT31;66984;47.404;18.836;2023-09-08T00:47:37;18.95;64.03
77693;SHT31;66984;47.404;18.836;2023-09-08T00:48:41;18.91;64.08
77693;SHT31;66984;47.404;18.836;2023-09-08T00:49:44;18.91;64.07
77693;SHT31;66984;47.404;18.836;2023-09-08T00:50:48;18.85;64.21
77693;SHT31;66984;47.404;18.836;2023-09-08T00:51:51;18.85;64.17
77693;SHT31;66984;47.404;18.836;2023-09-08T00:52:54;18.80;64.31
77693;SHT31;66984;47.404;18.836;2023-09-08T00:53:57;18.77;64.67
77693;SHT31;66984;47.404;18.836;2023-09-08T00:55:00;18.78;64.67
77693;SHT31;66984;47.404;18.836;2023-09-08T00:56:04;18.73;64.67
77693;SHT31;66984;47.404;18.836;2023-09-08T00:57:09;18.75;64.63
77693;SHT31;66984;47.404;18.836;2023-09-08T00:58:12;18.78;64.61
77693;SHT31;66984;47.404;18.836;2023-09-08T00:59:15;18.77;64.65
77693;SHT31;66984;47.404;18.836;2023-09-08T01:00:18;18.75;64.74
77693;SHT31;66984;47.404;18.836;2023-09-08T01:01:21;18.75;64.75
77693;SHT31;66984;47.404;18.836;2023-09-08T01:02:24;18.75;64.69
77693;SHT31;66984;47.404;18.836;2023-09-08T01:03:27;18.74;64.74
77693;SHT31;66984;47.404;18.836;2023-09-08T01:04:30;18.73;64.74
77693;SHT31;66984;47.404;18.836;2023-09-08T01:05:36;18.71;64.77
77693;SHT31;66984;47.404;18.836;2023-09-08T01:06:39;18.70;64.80
77693;SHT31;66984;47.404;18.836;2023-09-08T01:07:44;18.68;64.83
77693;SHT31;66984;47.404;18.836;2023-09-08T01:08:48;18.61;65.01
77693;SHT31;66984;47.404;18.836;2023-09-08T01:09:51;18.59;64.98
77693;SHT31;66984;47.404;18.836;2023-09-08T01:11:14;18.60;65.00
77693;SHT31;66984;47.404;18.836;2023-09-08T01:12:18;18.57;64.96
77693;SHT31;66984;47.404;18.836;2023-09-08T01:13:21;18.57;65.09
77693;SHT31;66984;47.404;18.836;2023-09-08T01:14:26;18.56;65.13
77693;SHT31;66984;47.404;18.836;2023-09-08T01:15:29;18.54;65.20
77693;SHT31;66984;47.404;18.836;2023-09-08T01:16:32;18.53;65.28
77693;SHT31;66984;47.404;18.836;2023-09-08T01:17:35;18.52;65.29
77693;SHT31;66984;47.404;18.836;2023-09-08T01:18:38;18.49;65.54
77693;SHT31;66984;47.404;18.836;2023-09-08T01:19:43;18.46;65.68
77693;SHT31;66984;47.404;18.836;2023-09-08T01:22:21;18.46;65.57
77693;SHT31;66984;47.404;18.836;2023-09-08T01:26:17;18.40;65.57
77693;SHT31;66984;47.404;18.836;2023-09-08T01:27:24;18.44;65.60
77693;SHT31;66984;47.404;18.836;2023-09-08T01:28:29;18.43;65.56
77693;SHT31;66984;47.404;18.836;2023-09-08T01:29:34;18.39;65.43
77693;SHT31;66984;47.404;18.836;2023-09-08T01:30:38;18.39;65.42
77693;SHT31;66984;47.404;18.836;2023-09-08T01:31:42;18.36;65.50
77693;SHT31;66984;47.404;18.836;2023-09-08T01:32:45;18.36;65.53
77693;SHT31;66984;47.404;18.836;2023-09-08T01:33:48;18.33;65.66
77693;SHT31;66984;47.404;18.836;2023-09-08T01:34:52;18.29;65.61
77693;SHT31;66984;47.404;18.836;2023-09-08T01:35:55;18.28;65.58
77693;SHT31;66984;47.404;18.836;2023-09-08T01:36:58;18.28;65.56
77693;SHT31;66984;47.404;18.836;2023-09-08T01:38:02;18.22;65.67
77693;SHT31;66984;47.404;18.836;2023-09-08T01:39:06;18.22;65.65
77693;SHT31;66984;47.404;18.836;2023-09-08T01:40:09;18.19;65.72
77693;SHT31;66984;47.404;18.836;2023-09-08T01:41:13;18.15;65.76
77693;SHT31;66984;47.404;18.836;2023-09-08T01:42:16;18.19;65.82
77693;SHT31;66984;47.404;18.836;2023-09-08T01:43:19;18.19;65.81
77693;SHT31;66984;47.404;18.836;2023-09-08T01:44:22;18.13;66.27
77693;SHT31;66984;47.404;18.836;2023-09-08T01:45:25;18.16;66.29
77693;SHT31;66984;47.404;18.836;2023-09-08T01:46:28;18.08;66.44
77693;SHT31;66984;47.404;18.836;2023-09-08T01:47:32;18.08;66.35
77693;SHT31;66984;47.404;18.836;2023-09-08T01:48:36;18.06;66.32
77693;SHT31;66984;47.404;18.836;2023-09-08T01:49:39;18.05;66.38
77693;SHT31;66984;47.404;18.836;2023-09-08T01:50:43;18.04;66.46
77693;SHT31;66984;47.404;18.836;2023-09-08T01:51:45;18.04;66.43
77693;SHT31;66984;47.404;18.836;2023-09-08T01:52:49;18.01;66.51
77693;SHT31;66984;47.404;18.836;2023-09-08T01:53:52;18.04;66.54
77693;SHT31;66984;47.404;18.836;2023-09-08T01:54:55;18.04;66.52
77693;SHT31;66984;47.404;18.836;2023-09-08T01:55:58;18.04;66.55
77693;SHT31;66984;47.404;18.836;2023-09-08T01:57:01;18.04;66.51
77693;SHT31;66984;47.404;18.836;2023-09-08T01:58:04;18.02;66.45
77693;SHT31;66984;47.404;18.836;2023-09-08T01:59:07;18.01;66.69
77693;SHT31;66984;47.404;18.836;2023-09-08T02:00:10;18.01;66.56
77693;SHT31;66984;47.404;18.836;2023-09-08T02:01:14;18.04;66.36
77693;SHT31;66984;47.404;18.836;2023-09-08T02:02:16;17.99;66.27
77693;SHT31;66984;47.404;18.836;2023-09-08T02:03:19;18.04;66.24
77693;SHT31;66984;47.404;18.836;2023-09-08T02:04:22;18.01;66.18
77693;SHT31;66984;47.404;18.836;2023-09-08T02:05:26;18.02;66.29
77693;SHT31;66984;47.404;18.836;2023-09-08T02:06:29;17.99;66.38
77693;SHT31;66984;47.404;18.836;2023-09-08T02:07:32;18.02;66.41
77693;SHT31;66984;47.404;18.836;2023-09-08T02:08:35;18.04;66.33
77693;SHT31;66984;47.404;18.836;2023-09-08T02:09:39;18.02;66.32
77693;SHT31;66984;47.404;18.836;2023-09-08T02:10:42;18.01;66.37
77693;SHT31;66984;47.404;18.836;2023-09-08T02:11:45;18.01;66.39
77693;SHT31;66984;47.404;18.836;2023-09-08T02:12:48;18.02;66.35
77693;SHT31;66984;47.404;18.836;2023-09-08T02:13:51;18.01;66.33
77693;SHT31;66984;47.404;18.836;2023-09-08T02:14:58;17.99;66.57
77693;SHT31;66984;47.404;18.836;2023-09-08T02:16:02;17.95;66.67
77693;SHT31;66984;47.404;18.836;2023-09-08T02:17:05;17.98;66.63
77693;SHT31;66984;47.404;18.836;2023-09-08T02:18:09;17.94;66.75
77693;SHT31;66984;47.404;18.836;2023-09-08T02:19:12;17.94;66.79
77693;SHT31;66984;47.404;18.836;2023-09-08T02:20:14;17.89;66.96
77693;SHT31;66984;47.404;18.836;2023-09-08T02:21:17;17.88;66.99
77693;SHT31;66984;47.404;18.836;2023-09-08T02:22:20;17.92;66.88
77693;SHT31;66984;47.404;18.836;2023-09-08T02:23:23;17.89;66.86
77693;SHT31;66984;47.404;18.836;2023-09-08T02:24:26;17.89;66.80
77693;SHT31;66984;47.404;18.836;2023-09-08T02:25:29;17.91;66.61
77693;SHT31;66984;47.404;18.836;2023-09-08T02:26:32;17.94;66.53
77693;SHT31;66984;47.404;18.836;2023-09-08T02:27:36;17.94;66.37
77693;SHT31;66984;47.404;18.836;2023-09-08T02:28:39;17.94;66.30
77693;SHT31;66984;47.404;18.836;2023-09-08T02:29:42;17.92;66.26
77693;SHT31;66984;47.404;18.836;2023-09-08T02:30:45;17.91;66.22
77693;SHT31;66984;47.404;18.836;2023-09-08T02:31:48;17.91;66.43
77693;SHT31;66984;47.404;18.836;2023-09-08T02:32:51;17.86;66.65
77693;SHT31;66984;47.404;18.836;2023-09-08T02:33:54;17.84;66.80
77693;SHT31;66984;47.404;18.836;2023-09-08T02:34:57;17.81;66.83
77693;SHT31;66984;47.404;18.836;2023-09-08T02:36:04;17.81;66.78
77693;SHT31;66984;47.404;18.836;2023-09-08T02:37:08;17.79;66.57
77693;SHT31;66984;47.404;18.836;2023-09-08T02:38:11;17.77;66.51
77693;SHT31;66984;47.404;18.836;2023-09-08T02:39:14;17.75;66.74
77693;SHT31;66984;47.404;18.836;2023-09-08T02:40:17;17.73;66.81
77693;SHT31;66984;47.404;18.836;2023-09-08T02:41:20;17.74;67.01
77693;SHT31;66984;47.404;18.836;2023-09-08T02:42:23;17.74;66.98
77693;SHT31;66984;47.404;18.836;2023-09-08T02:43:26;17.73;66.86
77693;SHT31;66984;47.404;18.836;2023-09-08T02:44:32;17.70;66.86
77693;SHT31;66984;47.404;18.836;2023-09-08T02:45:35;17.74;66.78
77693;SHT31;66984;47.404;18.836;2023-09-08T02:46:38;17.73;66.77
77693;SHT31;66984;47.404;18.836;2023-09-08T02:47:40;17.74;66.79
77693;SHT31;66984;47.404;18.836;2023-09-08T02:48:43;17.75;66.84
77693;SHT31;66984;47.404;18.836;2023-09-08T02:49:46;17.74;66.96
77693;SHT31;66984;47.404;18.836;2023-09-08T02:50:49;17.73;66.95
77693;SHT31;66984;47.404;18.836;2023-09-08T02:51:52;17.71;67.04
77693;SHT31;66984;47.404;18.836;2023-09-08T02:52:55;17.71;67.12
77693;SHT31;66984;47.404;18.836;2023-09-08T02:53:58;17.68;67.11
77693;SHT31;66984;47.404;18.836;2023-09-08T02:55:01;17.65;67.26
77693;SHT31;66984;47.404;18.836;2023-09-08T02:56:04;17.64;67.28
77693;SHT31;66984;47.404;18.836;2023-09-08T02:57:08;17.65;67.50
77693;SHT31;66984;47.404;18.836;2023-09-08T02:58:11;17.65;67.48
77693;SHT31;66984;47.404;18.836;2023-09-08T02:59:14;17.63;67.54
77693;SHT31;66984;47.404;18.836;2023-09-08T03:00:17;17.61;67.69
77693;SHT31;66984;47.404;18.836;2023-09-08T03:01:20;17.60;67.82
77693;SHT31;66984;47.404;18.836;2023-09-08T03:02:24;17.60;67.99
77693;SHT31;66984;47.404;18.836;2023-09-08T03:03:28;17.58;67.92
77693;SHT31;66984;47.404;18.836;2023-09-08T03:04:51;17.55;68.05
77693;SHT31;66984;47.404;18.836;2023-09-08T03:05:54;17.57;68.11
77693;SHT31;66984;47.404;18.836;2023-09-08T03:06:59;17.58;68.21
77693;SHT31;66984;47.404;18.836;2023-09-08T03:08:05;17.51;68.19
77693;SHT31;66984;47.404;18.836;2023-09-08T03:09:08;17.54;68.33
77693;SHT31;66984;47.404;18.836;2023-09-08T03:10:11;17.54;68.30
77693;SHT31;66984;47.404;18.836;2023-09-08T03:11:14;17.51;68.36
77693;SHT31;66984;47.404;18.836;2023-09-08T03:12:17;17.53;68.40
77693;SHT31;66984;47.404;18.836;2023-09-08T03:13:20;17.51;68.40
77693;SHT31;66984;47.404;18.836;2023-09-08T03:14:23;17.50;68.43
77693;SHT31;66984;47.404;18.836;2023-09-08T03:15:26;17.50;68.42
77693;SHT31;66984;47.404;18.836;2023-09-08T03:16:32;17.50;68.44
77693;SHT31;66984;47.404;18.836;2023-09-08T03:17:35;17.50;68.67
77693;SHT31;66984;47.404;18.836;2023-09-08T03:18:38;17.50;68.53
77693;SHT31;66984;47.404;18.836;2023-09-08T03:19:45;17.47;68.45
77693;SHT31;66984;47.404;18.836;2023-09-08T03:20:51;17.50;68.35
77693;SHT31;66984;47.404;18.836;2023-09-08T03:21:54;17.51;68.30
77693;SHT31;66984;47.404;18.836;2023-09-08T03:22:57;17.46;68.35
77693;SHT31;66984;47.404;18.836;2023-09-08T03:24:01;17.46;68.39
77693;SHT31;66984;47.404;18.836;2023-09-08T03:25:04;17.44;68.41
77693;SHT31;66984;47.404;18.836;2023-09-08T03:26:12;17.44;68.41
77693;SHT31;66984;47.404;18.836;2023-09-08T03:27:16;17.46;68.44
77693;SHT31;66984;47.404;18.836;2023-09-08T03:28:18;17.44;68.45
77693;SHT31;66984;47.404;18.836;2023-09-08T03:29:21;17.41;68.63
77693;SHT31;66984;47.404;18.836;2023-09-08T03:30:24;17.40;68.54
77693;SHT31;66984;47.404;18.836;2023-09-08T03:31:27;17.38;68.51
77693;SHT31;66984;47.404;18.836;2023-09-08T03:32:30;17.38;68.51
77693;SHT31;66984;47.404;18.836;2023-09-08T03:33:34;17.37;68.52
77693;SHT31;66984;47.404;18.836;2023-09-08T03:34:37;17.37;68.43
77693;SHT31;66984;47.404;18.836;2023-09-08T03:35:42;17.34;68.40
77693;SHT31;66984;47.404;18.836;2023-09-08T03:36:45;17.36;68.47
77693;SHT31;66984;47.404;18.836;2023-09-08T03:37:48;17.34;68.46
77693;SHT31;66984;47.404;18.836;2023-09-08T03:38:51;17.33;68.52
77693;SHT31;66984;47.404;18.836;2023-09-08T03:39:54;17.31;68.52
77693;SHT31;66984;47.404;18.836;2023-09-08T03:40:57;17.31;68.46
77693;SHT31;66984;47.404;18.836;2023-09-08T03:42:01;17.34;68.19
77693;SHT31;66984;47.404;18.836;2023-09-08T03:43:04;17.31;68.16
77693;SHT31;66984;47.404;18.836;2023-09-08T03:44:07;17.30;68.33
77693;SHT31;66984;47.404;18.836;2023-09-08T03:45:10;17.30;68.42
77693;SHT31;66984;47.404;18.836;2023-09-08T03:46:13;17.30;68.48
77693;SHT31;66984;47.404;18.836;2023-09-08T03:47:16;17.27;68.46
77693;SHT31;66984;47.404;18.836;2023-09-08T03:48:19;17.23;68.62
77693;SHT31;66984;47.404;18.836;2023-09-08T03:49:22;17.27;68.53
77693;SHT31;66984;47.404;18.836;2023-09-08T03:50:25;17.24;68.51
77693;SHT31;66984;47.404;18.836;2023-09-08T03:51:28;17.24;68.54
77693;SHT31;66984;47.404;18.836;2023-09-08T03:52:31;17.20;68.51
77693;SHT31;66984;47.404;18.836;2023-09-08T03:53:34;17.22;68.56
77693;SHT31;66984;47.404;18.836;2023-09-08T03:54:37;17.20;68.69
77693;SHT31;66984;47.404;18.836;2023-09-08T03:55:40;17.19;68.53
77693;SHT31;66984;47.404;18.836;2023-09-08T03:56:43;17.16;68.60
77693;SHT31;66984;47.404;18.836;2023-09-08T03:57:46;17.15;68.78
77693;SHT31;66984;47.404;18.836;2023-09-08T03:58:49;17.15;68.76
77693;SHT31;66984;47.404;18.836;2023-09-08T03:59:52;17.10;68.81
77693;SHT31;66984;47.404;18.836;2023-09-08T04:00:55;17.12;68.80
77693;SHT31;66984;47.404;18.836;2023-09-08T04:01:57;17.13;68.71
77693;SHT31;66984;47.404;18.836;2023-09-08T04:03:00;17.16;68.59
77693;SHT31;66984;47.404;18.836;2023-09-08T04:04:04;17.12;68.70
77693;SHT31;66984;47.404;18.836;2023-09-08T04:05:07;17.10;68.63
77693;SHT31;66984;47.404;18.836;2023-09-08T04:06:10;17.10;68.58
77693;SHT31;66984;47.404;18.836;2023-09-08T04:07:13;17.10;68.57
77693;SHT31;66984;47.404;18.836;2023-09-08T04:08:17;17.13;68.64
77693;SHT31;66984;47.404;18.836;2023-09-08T04:09:20;17.12;68.71
77693;SHT31;66984;47.404;18.836;2023-09-08T04:10:23;17.10;68.77
77693;SHT31;66984;47.404;18.836;2023-09-08T04:11:26;17.07;68.73
77693;SHT31;66984;47.404;18.836;2023-09-08T04:12:29;17.06;68.78
77693;SHT31;66984;47.404;18.836;2023-09-08T04:13:32;17.05;68.89
77693;SHT31;66984;47.404;18.836;2023-09-08T04:14:35;17.05;68.92
77693;SHT31;66984;47.404;18.836;2023-09-08T04:15:39;17.03;68.99
77693;SHT31;66984;47.404;18.836;2023-09-08T04:16:42;17.02;69.05
77693;SHT31;66984;47.404;18.836;2023-09-08T04:17:45;17.00;69.04
77693;SHT31;66984;47.404;18.836;2023-09-08T04:18:48;17.03;68.94
77693;SHT31;66984;47.404;18.836;2023-09-08T04:19:53;17.06;68.86
77693;SHT31;66984;47.404;18.836;2023-09-08T04:20:56;17.06;68.92
77693;SHT31;66984;47.404;18.836;2023-09-08T04:21:59;17.03;69.01
77693;SHT31;66984;47.404;18.836;2023-09-08T04:23:02;17.03;68.98
77693;SHT31;66984;47.404;18.836;2023-09-08T04:24:06;17.02;68.98
77693;SHT31;66984;47.404;18.836;2023-09-08T04:25:09;16.99;69.05
77693;SHT31;66984;47.404;18.836;2023-09-08T04:26:13;16.97;69.19
77693;SHT31;66984;47.404;18.836;2023-09-08T04:27:16;16.96;69.31
77693;SHT31;66984;47.404;18.836;2023-09-08T04:28:19;16.96;69.22
77693;SHT31;66984;47.404;18.836;2023-09-08T04:29:21;16.92;69.35
77693;SHT31;66984;47.404;18.836;2023-09-08T04:30:24;16.95;69.44
77693;SHT31;66984;47.404;18.836;2023-09-08T04:31:27;16.92;69.54
77693;SHT31;66984;47.404;18.836;2023-09-08T04:32:30;16.93;69.51
77693;SHT31;66984;47.404;18.836;2023-09-08T04:33:33;16.96;69.45
77693;SHT31;66984;47.404;18.836;2023-09-08T04:34:39;16.97;69.24
77693;SHT31;66984;47.404;18.836;2023-09-08T04:35:43;16.95;69.29
77693;SHT31;66984;47.404;18.836;2023-09-08T04:36:46;16.93;69.48
77693;SHT31;66984;47.404;18.836;2023-09-08T04:37:49;16.93;69.51
77693;SHT31;66984;47.404;18.836;2023-09-08T04:38:52;16.93;69.61
77693;SHT31;66984;47.404;18.836;2023-09-08T04:39:55;16.93;69.69
77693;SHT31;66984;47.404;18.836;2023-09-08T04:40:58;16.97;69.65
77693;SHT31;66984;47.404;18.836;2023-09-08T04:42:01;16.97;69.53
77693;SHT31;66984;47.404;18.836;2023-09-08T04:43:04;16.95;69.62
77693;SHT31;66984;47.404;18.836;2023-09-08T04:44:07;16.90;70.00
77693;SHT31;66984;47.404;18.836;2023-09-08T04:45:10;16.92;70.00
77693;SHT31;66984;47.404;18.836;2023-09-08T04:46:13;16.92;70.00
77693;SHT31;66984;47.404;18.836;2023-09-08T04:47:16;16.90;70.11
77693;SHT31;66984;47.404;18.836;2023-09-08T04:48:18;16.90;70.14
77693;SHT31;66984;47.404;18.836;2023-09-08T04:49:22;16.89;70.16
77693;SHT31;66984;47.404;18.836;2023-09-08T04:50:24;16.92;70.20
77693;SHT31;66984;47.404;18.836;2023-09-08T04:51:27;16.93;70.17
77693;SHT31;66984;47.404;18.836;2023-09-08T04:52:30;16.95;70.12
77693;SHT31;66984;47.404;18.836;2023-09-08T04:53:33;16.95;70.26
77693;SHT31;66984;47.404;18.836;2023-09-08T04:54:37;16.93;70.37
77693;SHT31;66984;47.404;18.836;2023-09-08T04:55:40;16.95;70.25
77693;SHT31;66984;47.404;18.836;2023-09-08T04:56:43;16.95;70.42
77693;SHT31;66984;47.404;18.836;2023-09-08T04:57:46;16.93;70.46
77693;SHT31;66984;47.404;18.836;2023-09-08T04:58:49;16.95;70.48
77693;SHT31;66984;47.404;18.836;2023-09-08T04:59:52;16.99;70.99
77693;SHT31;66984;47.404;18.836;2023-09-08T05:00:54;17.02;71.12
77693;SHT31;66984;47.404;18.836;2023-09-08T05:01:58;17.06;71.16
77693;SHT31;66984;47.404;18.836;2023-09-08T05:03:02;17.09;70.84
77693;SHT31;66984;47.404;18.836;2023-09-08T05:04:05;17.12;70.65
77693;SHT31;66984;47.404;18.836;2023-09-08T05:05:08;17.15;70.48
77693;SHT31;66984;47.404;18.836;2023-09-08T05:06:11;17.17;70.37
77693;SHT31;66984;47.404;18.836;2023-09-08T05:07:14;17.19;70.11
77693;SHT31;66984;47.404;18.836;2023-09-08T05:08:17;17.20;70.06
77693;SHT31;66984;47.404;18.836;2023-09-08T05:09:20;17.22;70.01
77693;SHT31;66984;47.404;18.836;2023-09-08T05:10:23;17.26;70.16
77693;SHT31;66984;47.404;18.836;2023-09-08T05:11:27;17.27;70.14
77693;SHT31;66984;47.404;18.836;2023-09-08T05:12:30;17.26;70.16
77693;SHT31;66984;47.404;18.836;2023-09-08T05:13:33;17.27;70.13
77693;SHT31;66984;47.404;18.836;2023-09-08T05:14:36;17.23;70.28
77693;SHT31;66984;47.404;18.836;2023-09-08T05:15:39;17.24;70.28
77693;SHT31;66984;47.404;18.836;2023-09-08T05:16:42;17.23;70.18
77693;SHT31;66984;47.404;18.836;2023-09-08T05:17:49;17.24;70.22
77693;SHT31;66984;47.404;18.836;2023-09-08T05:18:52;17.26;70.27
77693;SHT31;66984;47.404;18.836;2023-09-08T05:19:55;17.27;70.36
77693;SHT31;66984;47.404;18.836;2023-09-08T05:20:58;17.27;70.38
77693;SHT31;66984;47.404;18.836;2023-09-08T05:22:01;17.30;70.35
77693;SHT31;66984;47.404;18.836;2023-09-08T05:23:04;17.31;70.39
77693;SHT31;66984;47.404;18.836;2023-09-08T05:24:07;17.31;70.55
77693;SHT31;66984;47.404;18.836;2023-09-08T05:25:11;17.31;70.59
77693;SHT31;66984;47.404;18.836;2023-09-08T05:26:13;17.33;70.68
77693;SHT31;66984;47.404;18.836;2023-09-08T05:27:16;17.33;70.80
77693;SHT31;66984;47.404;18.836;2023-09-08T05:28:19;17.37;70.90
77693;SHT31;66984;47.404;18.836;2023-09-08T05:29:22;17.40;70.85
77693;SHT31;66984;47.404;18.836;2023-09-08T05:30:25;17.43;70.81
77693;SHT31;66984;47.404;18.836;2023-09-08T05:31:28;17.43;70.89
77693;SHT31;66984;47.404;18.836;2023-09-08T05:32:31;17.47;70.86
77693;SHT31;66984;47.404;18.836;2023-09-08T05:33:34;17.48;70.88
77693;SHT31;66984;47.404;18.836;2023-09-08T05:34:37;17.48;70.91
77693;SHT31;66984;47.404;18.836;2023-09-08T05:35:41;17.48;71.14
77693;SHT31;66984;47.404;18.836;2023-09-08T05:36:44;17.51;71.09
77693;SHT31;66984;47.404;18.836;2023-09-08T05:37:49;17.51;71.22
77693;SHT31;66984;47.404;18.836;2023-09-08T05:38:52;17.50;71.51
77693;SHT31;66984;47.404;18.836;2023-09-08T05:39:55;17.55;71.48
77693;SHT31;66984;47.404;18.836;2023-09-08T05:40:58;17.60;71.48
77693;SHT31;66984;47.404;18.836;2023-09-08T05:42:01;17.60;71.43
77693;SHT31;66984;47.404;18.836;2023-09-08T05:43:04;17.64;71.45
77693;SHT31;66984;47.404;18.836;2023-09-08T05:44:07;17.73;71.54
77693;SHT31;66984;47.404;18.836;2023-09-08T05:45:10;17.67;71.89
77693;SHT31;66984;47.404;18.836;2023-09-08T05:46:13;17.73;71.92
77693;SHT31;66984;47.404;18.836;2023-09-08T05:47:15;17.73;72.11
77693;SHT31;66984;47.404;18.836;2023-09-08T05:48:19;17.77;71.92
77693;SHT31;66984;47.404;18.836;2023-09-08T05:49:22;17.79;71.96
77693;SHT31;66984;47.404;18.836;2023-09-08T05:50:25;17.91;71.66
77693;SHT31;66984;47.404;18.836;2023-09-08T05:51:28;17.99;71.68
77693;SHT31;66984;47.404;18.836;2023-09-08T05:52:31;18.08;72.30
77693;SHT31;66984;47.404;18.836;2023-09-08T05:53:35;18.12;71.45
77693;SHT31;66984;47.404;18.836;2023-09-08T05:54:40;18.19;71.90
77693;SHT31;66984;47.404;18.836;2023-09-08T05:55:43;18.26;71.51
77693;SHT31;66984;47.404;18.836;2023-09-08T05:56:47;18.36;70.36
77693;SHT31;66984;47.404;18.836;2023-09-08T05:57:49;18.49;70.13
77693;SHT31;66984;47.404;18.836;2023-09-08T05:58:52;18.61;70.05
77693;SHT31;66984;47.404;18.836;2023-09-08T05:59:55;18.70;69.42
77693;SHT31;66984;47.404;18.836;2023-09-08T06:00:59;18.81;69.05
77693;SHT31;66984;47.404;18.836;2023-09-08T06:02:02;18.91;68.87
77693;SHT31;66984;47.404;18.836;2023-09-08T06:03:05;19.05;68.13
77693;SHT31;66984;47.404;18.836;2023-09-08T06:04:08;19.12;67.83
77693;SHT31;66984;47.404;18.836;2023-09-08T06:05:11;19.23;67.28
77693;SHT31;66984;47.404;18.836;2023-09-08T06:06:14;19.33;67.26
77693;SHT31;66984;47.404;18.836;2023-09-08T06:07:17;19.45;66.79
77693;SHT31;66984;47.404;18.836;2023-09-08T06:08:36;19.58;66.04
77693;SHT31;66984;47.404;18.836;2023-09-08T06:09:39;19.65;65.82
77693;SHT31;66984;47.404;18.836;2023-09-08T06:10:42;19.69;65.49
77693;SHT31;66984;47.404;18.836;2023-09-08T06:11:44;19.81;65.19
77693;SHT31;66984;47.404;18.836;2023-09-08T06:12:48;19.86;65.15
77693;SHT31;66984;47.404;18.836;2023-09-08T06:13:53;19.97;64.83
77693;SHT31;66984;47.404;18.836;2023-09-08T06:15:05;20.03;64.94
77693;SHT31;66984;47.404;18.836;2023-09-08T06:16:08;20.17;64.55
77693;SHT31;66984;47.404;18.836;2023-09-08T06:17:11;20.22;64.22
77693;SHT31;66984;47.404;18.836;2023-09-08T06:18:14;20.29;63.99
77693;SHT31;66984;47.404;18.836;2023-09-08T06:19:17;20.38;63.81
77693;SHT31;66984;47.404;18.836;2023-09-08T06:20:20;20.47;63.78
77693;SHT31;66984;47.404;18.836;2023-09-08T06:21:24;20.53;62.80
77693;SHT31;66984;47.404;18.836;2023-09-08T06:22:27;20.61;62.92
77693;SHT31;66984;47.404;18.836;2023-09-08T06:23:30;20.69;62.76
77693;SHT31;66984;47.404;18.836;2023-09-08T06:24:33;20.75;62.74
77693;SHT31;66984;47.404;18.836;2023-09-08T06:25:36;20.82;62.65
77693;SHT31;66984;47.404;18.836;2023-09-08T06:26:39;20.90;62.22
77693;SHT31;66984;47.404;18.836;2023-09-08T06:27:42;20.95;61.55
77693;SHT31;66984;47.404;18.836;2023-09-08T06:28:45;21.04;61.59
77693;SHT31;66984;47.404;18.836;2023-09-08T06:29:48;21.08;60.77
77693;SHT31;66984;47.404;18.836;2023-09-08T06:30:51;21.17;60.98
77693;SHT31;66984;47.404;18.836;2023-09-08T06:31:54;21.23;60.83
77693;SHT31;66984;47.404;18.836;2023-09-08T06:32:56;21.30;60.81
77693;SHT31;66984;47.404;18.836;2023-09-08T06:34:00;21.35;60.76
77693;SHT31;66984;47.404;18.836;2023-09-08T06:35:03;21.40;60.05
77693;SHT31;66984;47.404;18.836;2023-09-08T06:36:06;21.48;59.84
77693;SHT31;66984;47.404;18.836;2023-09-08T06:37:10;21.57;59.73
77693;SHT31;66984;47.404;18.836;2023-09-08T06:38:13;21.64;59.39